Time;durP1;ratioP1;P1;durP2;ratioP2;P2;SDS_P1;SDS_P2;PMS_P1;PMS_P2;Temp;Humidity;BMP_temperature;BMP_pressure;BME280_temperature;BME280_humidity;BME280_pressure;Samples;Min_cycle;Max_cycle;Signal;HPM_P1;HPM_P2
2022/12/28 00:02:19;;;;;;;10.70;6.47;;;3.60;90.00;;;;;;5036300;28;20320;-76
2022/12/28 00:04:44;;;;;;;10.63;6.43;;;3.60;90.00;;;;;;5031497;28;20550;-76
2022/12/28 00:07:10;;;;;;;10.57;6.47;;;3.60;90.00;;;;;;5032155;28;20239;-77
2022/12/28 00:09:36;;;;;;;12.03;6.30;;;3.60;89.90;;;;;;5030344;28;20197;-76
2022/12/28 00:12:01;;;;;;;11.97;6.60;;;3.70;89.70;;;;;;5032676;28;20195;-77
2022/12/28 00:14:27;;;;;;;11.87;6.87;;;3.70;89.70;;;;;;5028665;28;20244;-78
2022/12/28 00:16:52;;;;;;;11.27;6.47;;;3.70;89.60;;;;;;5029922;28;20284;-77
2022/12/28 00:19:18;;;;;;;12.40;5.97;;;3.70;89.50;;;;;;5029205;28;20205;-76
2022/12/28 00:21:45;;;;;;;10.83;6.60;;;3.70;89.50;;;;;;5027278;28;20220;-76
2022/12/28 00:24:19;;;;;;;14.60;6.57;;;3.70;89.30;;;;;;5029974;28;20201;-79
2022/12/28 00:26:45;;;;;;;9.37;6.20;;;3.70;89.30;;;;;;5033671;28;20430;-77
2022/12/28 00:29:11;;;;;;;10.97;6.57;;;3.70;89.30;;;;;;5016035;28;20499;-75
2022/12/28 00:31:36;;;;;;;8.17;5.40;;;3.70;89.30;;;;;;5032902;28;20431;-76
2022/12/28 00:34:03;;;;;;;10.73;5.60;;;3.70;89.20;;;;;;5020036;28;20259;-76
2022/12/28 00:36:30;;;;;;;8.70;5.80;;;3.70;89.30;;;;;;5033539;28;20185;-77
2022/12/28 00:38:55;;;;;;;8.30;5.77;;;3.70;89.20;;;;;;5033807;28;20415;-76
2022/12/28 00:41:21;;;;;;;10.67;6.37;;;3.70;89.20;;;;;;5031050;28;20416;-76
2022/12/28 00:43:47;;;;;;;10.30;5.77;;;3.80;89.20;;;;;;5031513;28;20204;-77
2022/12/28 00:46:13;;;;;;;8.67;5.33;;;3.80;88.90;;;;;;5032730;28;20209;-77
2022/12/28 00:48:38;;;;;;;8.70;5.47;;;3.80;88.70;;;;;;5032719;28;20573;-75
2022/12/28 00:51:07;;;;;;;8.20;5.00;;;3.80;88.70;;;;;;5031772;28;20188;-76
2022/12/28 00:53:33;;;;;;;10.47;5.27;;;3.90;88.90;;;;;;5030271;28;20209;-75
2022/12/28 00:56:10;;;;;;;8.73;5.27;;;3.90;88.70;;;;;;5025787;28;20428;-77
2022/12/28 00:58:37;;;;;;;10.90;5.27;;;3.90;88.60;;;;;;5030460;28;20995;-75
2022/12/28 01:01:04;;;;;;;9.73;5.83;;;3.90;88.30;;;;;;5030875;28;20439;-77
2022/12/28 01:03:30;;;;;;;11.33;5.63;;;3.90;88.30;;;;;;5029778;28;20451;-76
2022/12/28 01:05:55;;;;;;;8.10;5.37;;;3.90;88.30;;;;;;5028345;28;20420;-77
2022/12/28 01:08:21;;;;;;;8.53;5.10;;;3.90;88.10;;;;;;5028143;28;20182;-76
2022/12/28 01:10:47;;;;;;;11.17;5.90;;;3.90;88.10;;;;;;5030091;28;20767;-75
2022/12/28 01:13:12;;;;;;;10.43;5.03;;;3.90;88.10;;;;;;5024698;28;20220;-75
2022/12/28 01:15:38;;;;;;;13.90;5.33;;;3.90;88.10;;;;;;5027041;28;20632;-77
2022/12/28 01:18:04;;;;;;;7.10;4.80;;;4.00;88.30;;;;;;5024265;28;20690;-77
2022/12/28 01:20:29;;;;;;;8.73;4.60;;;4.00;88.00;;;;;;5030540;28;20820;-77
2022/12/28 01:22:55;;;;;;;3.20;2.53;;;4.10;88.30;;;;;;5024555;28;20539;-76
2022/12/28 01:25:21;;;;;;;4.10;3.07;;;4.30;87.70;;;;;;5030240;28;20275;-77
2022/12/28 01:27:46;;;;;;;7.70;2.80;;;4.60;87.10;;;;;;5026748;28;20561;-76
2022/12/28 01:30:15;;;;;;;5.93;3.13;;;4.80;85.90;;;;;;5031688;28;20980;-78
2022/12/28 01:32:41;;;;;;;4.07;2.77;;;4.90;84.90;;;;;;5024570;28;20213;-76
2022/12/28 01:35:07;;;;;;;4.83;2.50;;;5.10;83.80;;;;;;5031266;28;20497;-77
2022/12/28 01:37:32;;;;;;;4.83;2.60;;;5.20;83.30;;;;;;5025312;28;20555;-76
2022/12/28 01:39:58;;;;;;;4.77;2.90;;;5.20;82.50;;;;;;5023491;28;20435;-77
2022/12/28 01:42:24;;;;;;;4.03;2.40;;;5.30;82.20;;;;;;5029734;28;20192;-75
2022/12/28 01:44:50;;;;;;;4.10;2.60;;;5.40;81.90;;;;;;5028898;28;20212;-76
2022/12/28 01:47:30;;;;;;;5.90;4.13;;;5.40;81.70;;;;;;5031379;28;20192;-77
2022/12/28 01:50:08;;;;;;;8.20;4.47;;;5.30;81.80;;;;;;5025656;28;21077;-76
2022/12/28 01:52:59;;;;;;;5.67;3.50;;;5.00;82.40;;;;;;5023862;28;20539;-76
2022/12/28 01:55:28;;;;;;;5.50;3.03;;;4.90;83.10;;;;;;5027644;28;20424;-76
2022/12/28 01:57:59;;;;;;;4.20;2.73;;;5.00;83.10;;;;;;5028669;28;20464;-77
2022/12/28 02:00:25;;;;;;;2.70;2.23;;;5.10;82.70;;;;;;5027865;28;20428;-76
2022/12/28 02:03:05;;;;;;;4.00;2.37;;;5.20;82.10;;;;;;5029932;28;20471;-76
2022/12/28 02:05:41;;;;;;;7.10;2.87;;;5.40;81.50;;;;;;5020933;28;20415;-75
2022/12/28 02:08:16;;;;;;;6.40;2.40;;;5.40;81.10;;;;;;5028383;28;20420;-77
2022/12/28 02:10:43;;;;;;;6.50;2.80;;;5.50;81.10;;;;;;5030458;28;20989;-76
2022/12/28 02:13:09;;;;;;;7.00;3.43;;;5.50;80.60;;;;;;5023723;28;20484;-76
2022/12/28 02:15:34;;;;;;;5.20;3.20;;;5.50;80.80;;;;;;5026293;28;20994;-77
2022/12/28 02:18:01;;;;;;;8.00;3.63;;;5.40;80.90;;;;;;5027419;28;20208;-75
2022/12/28 02:20:40;;;;;;;9.03;4.80;;;5.30;81.50;;;;;;5028724;28;20264;-75
2022/12/28 02:23:37;;;;;;;4.00;2.97;;;5.10;82.20;;;;;;5031028;28;20455;-76
2022/12/28 02:26:12;;;;;;;7.47;4.47;;;4.90;83.10;;;;;;5030472;28;20923;-75
2022/12/28 02:29:15;;;;;;;6.17;3.90;;;4.80;83.80;;;;;;5029622;28;20411;-74
2022/12/28 02:31:59;;;;;;;7.33;4.10;;;4.70;84.40;;;;;;5032212;28;20415;-74
2022/12/28 02:34:26;;;;;;;6.37;3.40;;;4.70;84.70;;;;;;5035538;28;20550;-74
2022/12/28 02:37:00;;;;;;;5.20;2.97;;;4.70;84.90;;;;;;5045174;28;20476;-74
2022/12/28 02:39:40;;;;;;;5.07;2.73;;;4.70;84.70;;;;;;5038127;28;20428;-75
2022/12/28 02:42:08;;;;;;;3.33;2.57;;;4.80;84.70;;;;;;5046851;28;21341;-74
2022/12/28 02:50:09;;;;;;;3.67;2.33;;;5.40;81.90;;;;;;5050341;28;20446;-74
2022/12/28 02:52:59;;;;;;;2.57;1.80;;;5.60;80.90;;;;;;5038580;28;20522;-75
2022/12/28 02:56:08;;;;;;;5.03;2.33;;;5.70;80.20;;;;;;5045092;28;20420;-74
2022/12/28 02:58:58;;;;;;;7.03;2.20;;;5.80;79.60;;;;;;5029625;28;20471;-74
2022/12/28 03:01:43;;;;;;;3.10;1.80;;;5.90;78.90;;;;;;5023591;28;20420;-74
2022/12/28 03:04:18;;;;;;;2.73;1.70;;;5.90;78.90;;;;;;5021425;28;20450;-75
2022/12/28 03:10:02;;;;;;;2.70;1.90;;;6.00;78.60;;;;;;5036164;28;20431;-76
2022/12/28 03:12:30;;;;;;;4.30;1.50;;;6.00;78.70;;;;;;5032726;28;20506;-76
2022/12/28 03:15:36;;;;;;;2.73;1.50;;;6.00;78.70;;;;;;5050366;28;20428;-75
2022/12/28 03:32:12;;;;;;;2.00;1.30;;;6.20;78.00;;;;;;5038615;28;20526;-75
2022/12/28 03:34:37;;;;;;;3.53;1.90;;;6.20;78.10;;;;;;5023998;28;20455;-76
2022/12/28 03:37:09;;;;;;;2.10;1.50;;;6.10;78.40;;;;;;5025306;28;20526;-75
2022/12/28 03:39:41;;;;;;;5.37;1.73;;;6.00;79.00;;;;;;5024246;28;20177;-75
2022/12/28 03:45:18;;;;;;;4.50;2.17;;;6.00;79.60;;;;;;5029035;28;20430;-74
2022/12/28 03:47:47;;;;;;;4.47;1.70;;;5.90;79.90;;;;;;5022698;28;20459;-75
2022/12/28 03:50:13;;;;;;;4.20;1.57;;;5.90;80.20;;;;;;5024449;28;20439;-75
2022/12/28 03:52:39;;;;;;;2.57;1.93;;;5.90;80.20;;;;;;5022070;28;20443;-75
2022/12/28 03:55:05;;;;;;;2.70;1.90;;;5.90;79.90;;;;;;5026938;28;20978;-76
2022/12/28 03:57:31;;;;;;;3.00;1.63;;;5.90;79.70;;;;;;5028651;28;20511;-76
2022/12/28 03:59:57;;;;;;;2.77;1.70;;;5.80;80.20;;;;;;5028622;28;20471;-76
2022/12/28 04:02:22;;;;;;;3.63;2.00;;;5.80;80.00;;;;;;5028639;28;20227;-76
2022/12/28 04:04:48;;;;;;;2.50;2.17;;;5.90;80.00;;;;;;5030557;28;20346;-75
2022/12/28 04:07:13;;;;;;;2.93;2.00;;;6.00;79.90;;;;;;5031010;28;20204;-74
2022/12/28 04:09:39;;;;;;;2.30;1.70;;;5.90;79.70;;;;;;5040108;28;20189;-76
2022/12/28 04:12:05;;;;;;;3.47;2.20;;;5.90;80.00;;;;;;5039844;28;20637;-76
2022/12/28 04:14:30;;;;;;;4.40;1.90;;;6.00;79.70;;;;;;5024874;28;20305;-75
2022/12/28 04:16:56;;;;;;;3.30;1.67;;;5.90;79.90;;;;;;5028861;28;20554;-75
2022/12/28 04:19:21;;;;;;;3.57;2.17;;;6.00;79.70;;;;;;5028641;28;20190;-76
2022/12/28 04:21:47;;;;;;;3.90;1.80;;;5.90;79.90;;;;;;5029327;28;20265;-76
2022/12/28 04:24:13;;;;;;;2.77;2.00;;;5.90;80.00;;;;;;5019567;28;20233;-75
2022/12/28 04:26:38;;;;;;;2.90;2.03;;;6.00;79.70;;;;;;5027602;28;20219;-76
2022/12/28 04:29:04;;;;;;;3.43;1.80;;;5.90;79.90;;;;;;5024400;28;20178;-75
2022/12/28 04:31:29;;;;;;;4.50;1.97;;;6.00;79.90;;;;;;5029666;28;20277;-75
2022/12/28 04:33:57;;;;;;;2.73;1.60;;;6.00;79.60;;;;;;5017931;28;20208;-76
2022/12/28 04:36:22;;;;;;;2.83;1.70;;;6.00;79.60;;;;;;5029408;28;20199;-75
2022/12/28 04:38:48;;;;;;;2.90;1.73;;;6.10;79.50;;;;;;5027350;28;20558;-76
2022/12/28 04:41:13;;;;;;;4.97;2.20;;;6.10;79.50;;;;;;5028481;28;20189;-76
2022/12/28 04:43:39;;;;;;;5.47;2.00;;;6.00;79.50;;;;;;5028255;28;20229;-76
2022/12/28 04:46:08;;;;;;;3.03;1.70;;;6.10;79.60;;;;;;5027622;28;20191;-75
2022/12/28 04:48:34;;;;;;;2.27;1.60;;;6.10;79.50;;;;;;5025385;28;20243;-76
2022/12/28 04:51:09;;;;;;;2.57;1.70;;;6.10;79.60;;;;;;5027439;28;20416;-74
2022/12/28 04:53:39;;;;;;;6.40;1.90;;;6.10;79.50;;;;;;5028103;28;20679;-75
2022/12/28 04:56:06;;;;;;;3.10;1.70;;;6.20;79.30;;;;;;5030947;28;20452;-74
2022/12/28 04:58:32;;;;;;;1.50;1.40;;;6.10;79.50;;;;;;5028602;28;20985;-75
2022/12/28 05:01:20;;;;;;;3.70;2.13;;;6.10;79.50;;;;;;5030175;28;20428;-76
2022/12/28 05:03:47;;;;;;;2.73;1.73;;;6.10;79.50;;;;;;5025958;28;20209;-77
2022/12/28 05:06:17;;;;;;;4.77;1.50;;;6.10;79.50;;;;;;5029817;28;21094;-76
2022/12/28 05:08:43;;;;;;;2.57;1.60;;;6.20;79.60;;;;;;5032076;28;20427;-76
2022/12/28 05:11:18;;;;;;;2.17;1.70;;;6.20;79.50;;;;;;5028902;28;20520;-74
2022/12/28 05:13:44;;;;;;;2.33;1.33;;;6.20;79.30;;;;;;5029378;28;20530;-74
2022/12/28 05:16:12;;;;;;;3.50;1.50;;;6.20;79.20;;;;;;5029992;28;20807;-74
2022/12/28 05:18:38;;;;;;;1.50;1.37;;;6.30;79.20;;;;;;5032696;28;20483;-76
2022/12/28 05:21:19;;;;;;;1.90;1.30;;;6.30;79.20;;;;;;5027760;28;20435;-75
2022/12/28 05:23:45;;;;;;;2.80;1.60;;;6.40;78.70;;;;;;5023693;28;20225;-75
2022/12/28 05:26:13;;;;;;;3.57;1.43;;;6.40;78.60;;;;;;5027361;28;20463;-77
2022/12/28 05:28:39;;;;;;;5.10;1.80;;;6.40;78.60;;;;;;5031481;28;20420;-75
2022/12/28 05:31:09;;;;;;;2.33;1.43;;;6.50;78.40;;;;;;5024453;28;20424;-76
2022/12/28 05:33:35;;;;;;;3.87;1.50;;;6.40;78.40;;;;;;5019941;28;20466;-76
2022/12/28 05:36:10;;;;;;;4.30;1.80;;;6.50;78.40;;;;;;5029974;28;20436;-76
2022/12/28 05:38:36;;;;;;;2.03;1.37;;;6.50;78.40;;;;;;5021983;28;20468;-76
2022/12/28 05:41:13;;;;;;;2.23;1.43;;;6.50;78.30;;;;;;5030102;28;20933;-76
2022/12/28 05:43:39;;;;;;;2.83;1.60;;;6.60;78.10;;;;;;5026738;28;20888;-75
2022/12/28 05:46:18;;;;;;;3.47;1.40;;;6.60;78.10;;;;;;5032996;28;20482;-77
2022/12/28 05:48:44;;;;;;;3.30;1.60;;;6.60;78.00;;;;;;5031953;28;20423;-76
2022/12/28 05:51:15;;;;;;;4.97;1.80;;;6.60;78.10;;;;;;5034121;28;20424;-75
2022/12/28 05:53:42;;;;;;;2.73;1.37;;;6.60;78.00;;;;;;5029910;28;20466;-75
2022/12/28 05:56:16;;;;;;;4.73;1.60;;;6.60;78.00;;;;;;5030006;28;20852;-75
2022/12/28 05:58:43;;;;;;;2.20;1.60;;;6.70;77.70;;;;;;5031484;28;20489;-76
2022/12/28 06:01:19;;;;;;;2.00;1.37;;;6.70;77.60;;;;;;5026743;28;20427;-75
2022/12/28 06:03:45;;;;;;;1.90;1.60;;;6.70;77.60;;;;;;5023827;28;20459;-76
2022/12/28 06:06:13;;;;;;;2.97;1.40;;;6.70;77.70;;;;;;5028180;28;20412;-76
2022/12/28 06:08:41;;;;;;;2.97;1.50;;;6.70;77.70;;;;;;5024909;28;20424;-77
2022/12/28 06:11:09;;;;;;;5.13;2.20;;;6.70;77.60;;;;;;5028283;28;20440;-76
2022/12/28 06:13:35;;;;;;;3.13;1.57;;;6.70;77.70;;;;;;5023064;28;20463;-75
2022/12/28 06:16:09;;;;;;;6.00;2.13;;;6.70;77.60;;;;;;5028132;28;20439;-76
2022/12/28 06:18:35;;;;;;;3.17;1.53;;;6.80;77.60;;;;;;5029208;28;20240;-75
2022/12/28 06:21:05;;;;;;;3.10;1.60;;;6.80;77.40;;;;;;5028451;28;20467;-75
2022/12/28 06:23:31;;;;;;;2.63;1.73;;;6.70;77.60;;;;;;5021353;28;20822;-77
2022/12/28 06:25:58;;;;;;;2.77;1.70;;;6.70;77.60;;;;;;5018191;28;20416;-75
2022/12/28 06:28:24;;;;;;;3.13;1.30;;;6.80;77.60;;;;;;5025488;28;20953;-75
2022/12/28 06:30:50;;;;;;;3.10;1.57;;;6.80;77.40;;;;;;5039021;28;20420;-75
2022/12/28 06:33:16;;;;;;;2.27;1.50;;;6.80;77.40;;;;;;5044820;28;20542;-76
2022/12/28 06:35:41;;;;;;;3.40;1.67;;;6.80;77.60;;;;;;5045221;28;20181;-76
2022/12/28 06:38:07;;;;;;;4.47;1.60;;;6.80;77.30;;;;;;5044160;28;20272;-75
2022/12/28 06:40:32;;;;;;;2.50;1.90;;;6.80;77.40;;;;;;5046509;28;20185;-76
2022/12/28 06:42:58;;;;;;;4.10;1.80;;;6.80;77.40;;;;;;5026699;28;20312;-75
2022/12/28 06:45:24;;;;;;;2.53;1.60;;;6.80;77.70;;;;;;5026034;28;20243;-75
2022/12/28 06:47:49;;;;;;;1.93;1.47;;;6.80;77.40;;;;;;5031364;28;20620;-76
2022/12/28 06:50:15;;;;;;;1.90;1.50;;;6.90;77.30;;;;;;5032440;28;20193;-76
2022/12/28 06:52:40;;;;;;;4.60;1.63;;;6.80;77.60;;;;;;5042748;28;20208;-75
2022/12/28 06:55:06;;;;;;;3.13;1.60;;;6.80;77.60;;;;;;5044970;28;20204;-75
2022/12/28 06:57:32;;;;;;;2.50;1.50;;;6.90;77.60;;;;;;5045286;28;20236;-76
2022/12/28 06:59:57;;;;;;;2.40;1.60;;;6.90;77.60;;;;;;5037599;28;20189;-76
2022/12/28 07:02:23;;;;;;;6.30;1.80;;;6.90;77.70;;;;;;5046562;28;20192;-76
2022/12/28 07:04:48;;;;;;;1.67;1.30;;;6.90;77.60;;;;;;5033833;28;20244;-75
2022/12/28 07:07:14;;;;;;;2.40;1.80;;;6.90;77.40;;;;;;5030312;28;20185;-75
2022/12/28 07:09:39;;;;;;;4.20;1.90;;;6.90;77.40;;;;;;5028769;28;20199;-77
2022/12/28 07:12:05;;;;;;;4.53;2.27;;;6.90;77.60;;;;;;5030080;28;20196;-77
2022/12/28 07:14:31;;;;;;;5.50;2.10;;;6.90;77.60;;;;;;5022068;28;20514;-77
2022/12/28 07:16:57;;;;;;;2.93;1.63;;;6.80;77.70;;;;;;5028349;28;20208;-76
2022/12/28 07:19:22;;;;;;;4.17;1.80;;;6.90;77.60;;;;;;5027946;28;20428;-76
2022/12/28 07:21:48;;;;;;;2.87;1.63;;;6.80;77.60;;;;;;5021960;28;20219;-78
2022/12/28 07:24:14;;;;;;;2.07;1.80;;;6.80;77.80;;;;;;5022121;28;20315;-75
2022/12/28 07:26:40;;;;;;;4.33;1.53;;;6.80;77.80;;;;;;5030014;28;20424;-75
2022/12/28 07:29:07;;;;;;;4.57;1.80;;;6.90;77.60;;;;;;5030412;28;20189;-76
2022/12/28 07:31:35;;;;;;;1.80;1.57;;;6.90;77.60;;;;;;5029533;28;20181;-77
2022/12/28 07:34:01;;;;;;;5.53;2.10;;;6.90;77.40;;;;;;5025953;28;20459;-77
2022/12/28 07:36:29;;;;;;;2.70;1.77;;;6.90;77.40;;;;;;5034611;28;20420;-76
2022/12/28 07:38:55;;;;;;;2.40;1.67;;;6.90;77.30;;;;;;5031119;28;20583;-76
2022/12/28 07:41:32;;;;;;;3.00;1.80;;;6.90;77.30;;;;;;5029851;28;20486;-75
2022/12/28 07:43:59;;;;;;;3.17;2.13;;;6.90;77.30;;;;;;5029142;28;20475;-76
2022/12/28 07:46:30;;;;;;;4.40;1.63;;;6.90;77.30;;;;;;5033202;28;21053;-75
2022/12/28 07:48:56;;;;;;;3.57;1.90;;;6.90;77.40;;;;;;5031607;28;20431;-76
2022/12/28 07:51:30;;;;;;;4.60;2.03;;;6.90;77.70;;;;;;5033125;28;20461;-76
2022/12/28 07:53:57;;;;;;;6.27;2.10;;;6.90;77.70;;;;;;5030487;28;20550;-76
2022/12/28 07:56:24;;;;;;;4.10;2.07;;;6.80;78.30;;;;;;5028076;28;20509;-78
2022/12/28 07:58:58;;;;;;;6.23;2.10;;;6.80;78.30;;;;;;5033365;28;20495;-77
2022/12/28 08:01:26;;;;;;;7.70;1.97;;;6.80;78.40;;;;;;5025316;28;20915;-77
2022/12/28 08:03:54;;;;;;;5.37;2.33;;;6.90;78.10;;;;;;5027373;28;20851;-76
2022/12/28 08:06:21;;;;;;;2.67;2.03;;;6.80;78.30;;;;;;5032849;28;20458;-76
2022/12/28 08:08:49;;;;;;;3.10;2.37;;;6.80;78.60;;;;;;5032585;28;20434;-77
2022/12/28 08:11:21;;;;;;;3.27;2.00;;;6.80;78.60;;;;;;5029542;28;20433;-75
2022/12/28 08:13:48;;;;;;;3.43;2.10;;;6.80;78.40;;;;;;5027020;28;20470;-73
2022/12/28 08:16:17;;;;;;;3.30;1.83;;;6.90;78.40;;;;;;5032511;28;20962;-75
2022/12/28 08:18:42;;;;;;;4.40;2.07;;;6.80;78.10;;;;;;5033070;28;20506;-75
2022/12/28 08:21:13;;;;;;;14.20;2.57;;;6.80;78.10;;;;;;5028041;28;20429;-76
2022/12/28 08:23:39;;;;;;;4.23;2.33;;;6.90;78.40;;;;;;5028434;28;20748;-76
2022/12/28 08:26:15;;;;;;;3.63;2.03;;;6.90;78.60;;;;;;5034595;28;20887;-75
2022/12/28 08:28:43;;;;;;;3.70;1.97;;;7.00;78.60;;;;;;5032337;28;20185;-76
2022/12/28 08:31:18;;;;;;;4.20;2.20;;;7.10;78.10;;;;;;5032629;28;20424;-76
2022/12/28 08:33:43;;;;;;;3.63;2.17;;;7.10;77.80;;;;;;5028381;28;20498;-75
2022/12/28 08:36:09;;;;;;;2.80;1.97;;;7.10;77.80;;;;;;5029786;28;20452;-75
2022/12/28 08:38:37;;;;;;;4.73;2.07;;;7.20;77.80;;;;;;5029245;28;20209;-76
2022/12/28 08:41:04;;;;;;;3.50;1.90;;;7.20;77.60;;;;;;5028708;28;20412;-76
2022/12/28 08:43:31;;;;;;;8.93;2.70;;;7.30;77.30;;;;;;5031468;28;20456;-74
2022/12/28 08:46:05;;;;;;;4.13;2.30;;;7.40;77.40;;;;;;5030225;28;20915;-75
2022/12/28 08:48:32;;;;;;;5.23;2.20;;;7.40;76.70;;;;;;5027692;28;20427;-75
2022/12/28 08:51:05;;;;;;;3.50;1.77;;;7.50;76.50;;;;;;5033073;28;20435;-73
2022/12/28 08:53:31;;;;;;;2.77;2.00;;;7.40;76.10;;;;;;5030444;28;20523;-74
2022/12/28 08:56:03;;;;;;;3.47;1.90;;;7.60;76.40;;;;;;5024993;28;20424;-74
2022/12/28 08:58:29;;;;;;;2.63;1.70;;;7.70;75.90;;;;;;5031331;28;20464;-74
2022/12/28 09:00:54;;;;;;;2.53;1.50;;;7.70;75.50;;;;;;5025674;28;20421;-76
2022/12/28 09:03:20;;;;;;;3.93;1.80;;;7.80;75.20;;;;;;5029438;28;20208;-73
2022/12/28 09:05:45;;;;;;;5.93;2.27;;;7.90;74.60;;;;;;5029632;28;20212;-74
2022/12/28 09:08:11;;;;;;;4.30;1.90;;;8.00;74.80;;;;;;5028689;28;20181;-75
2022/12/28 09:10:36;;;;;;;4.10;2.03;;;8.10;74.20;;;;;;5031205;28;20208;-76
2022/12/28 09:13:02;;;;;;;3.80;2.00;;;8.10;74.20;;;;;;5026830;28;20201;-73
2022/12/28 09:15:28;;;;;;;5.20;2.67;;;8.20;74.00;;;;;;5032263;28;20189;-75
2022/12/28 09:17:53;;;;;;;4.30;2.87;;;8.20;74.00;;;;;;5030088;28;20270;-72
2022/12/28 09:20:19;;;;;;;7.30;2.43;;;8.20;74.00;;;;;;5028417;28;20177;-73
2022/12/28 09:22:44;;;;;;;4.57;2.63;;;8.30;73.70;;;;;;5027299;28;20287;-74
2022/12/28 09:25:10;;;;;;;4.53;2.30;;;8.40;73.50;;;;;;5031710;28;20173;-75
2022/12/28 09:27:35;;;;;;;2.50;2.00;;;8.40;73.30;;;;;;5024457;28;20192;-74
2022/12/28 09:30:02;;;;;;;3.83;1.93;;;8.40;73.50;;;;;;5032296;28;20196;-75
2022/12/28 09:32:27;;;;;;;9.30;3.40;;;8.40;73.20;;;;;;5032675;28;20266;-75
2022/12/28 09:34:53;;;;;;;4.40;2.30;;;8.40;73.00;;;;;;5034946;28;20847;-76
2022/12/28 09:37:18;;;;;;;4.43;2.13;;;8.40;73.00;;;;;;5028926;28;20213;-76
2022/12/28 09:39:44;;;;;;;6.77;2.40;;;8.50;72.90;;;;;;5030116;28;20216;-73
2022/12/28 09:42:22;;;;;;;12.73;2.33;;;8.50;72.90;;;;;;5037394;28;20185;-74
2022/12/28 09:44:54;;;;;;;3.77;2.10;;;8.60;72.90;;;;;;5025043;28;20192;-74
2022/12/28 09:47:23;;;;;;;5.20;2.60;;;8.60;72.90;;;;;;5034307;28;20851;-74
2022/12/28 09:50:24;;;;;;;4.10;2.47;;;8.60;72.40;;;;;;5036684;28;20827;-75
2022/12/28 09:53:15;;;;;;;3.63;2.33;;;8.70;72.40;;;;;;5024821;28;20824;-73
2022/12/28 09:55:58;;;;;;;12.53;3.40;;;8.60;72.70;;;;;;5029150;28;20440;-75
2022/12/28 09:58:25;;;;;;;7.00;2.70;;;8.80;73.00;;;;;;5031010;28;20476;-75
2022/12/28 10:00:59;;;;;;;3.57;2.30;;;8.80;72.70;;;;;;5034254;28;20416;-72
2022/12/28 10:03:39;;;;;;;5.77;2.60;;;8.90;72.70;;;;;;5028771;28;20965;-74
2022/12/28 10:06:23;;;;;;;3.27;2.23;;;8.90;72.10;;;;;;5024854;28;20423;-74
2022/12/28 10:08:52;;;;;;;4.80;1.67;;;9.00;71.80;;;;;;5025726;28;20434;-73
2022/12/28 10:11:21;;;;;;;4.30;2.00;;;9.00;71.80;;;;;;5028002;28;20443;-75
2022/12/28 10:13:54;;;;;;;3.10;2.00;;;9.00;71.80;;;;;;5028730;28;20987;-72
2022/12/28 10:16:20;;;;;;;2.70;1.80;;;9.00;72.00;;;;;;5032227;28;20435;-75
2022/12/28 10:18:47;;;;;;;2.70;1.87;;;9.10;71.80;;;;;;5038138;28;20954;-75
2022/12/28 10:21:17;;;;;;;3.07;1.70;;;9.20;71.60;;;;;;5027374;28;20417;-76
2022/12/28 10:23:44;;;;;;;3.30;1.70;;;9.30;71.40;;;;;;5035974;28;21141;-74
2022/12/28 10:26:15;;;;;;;7.00;2.00;;;9.30;71.10;;;;;;5037382;28;20447;-73
2022/12/28 10:28:52;;;;;;;3.20;1.70;;;9.40;71.10;;;;;;5039222;28;20432;-75
2022/12/28 10:31:36;;;;;;;3.93;1.93;;;9.50;71.10;;;;;;5039127;28;20447;-75
2022/12/28 10:34:13;;;;;;;6.43;2.20;;;9.60;71.00;;;;;;5029572;28;20468;-75
2022/12/28 10:36:39;;;;;;;3.60;1.90;;;9.60;70.80;;;;;;5032909;28;20439;-74
2022/12/28 10:39:09;;;;;;;2.97;1.50;;;9.60;71.60;;;;;;5031521;28;20476;-73
2022/12/28 10:41:37;;;;;;;1.93;1.40;;;9.70;71.80;;;;;;5036007;28;20429;-75
2022/12/28 10:44:33;;;;;;;1.70;1.50;;;9.80;71.40;;;;;;5035359;28;20467;-74
2022/12/28 10:47:25;;;;;;;3.77;1.90;;;10.00;71.00;;;;;;5034886;28;20451;-75
2022/12/28 10:49:51;;;;;;;3.60;2.03;;;10.00;70.70;;;;;;5039714;28;20408;-76
2022/12/28 10:52:19;;;;;;;3.60;1.80;;;10.10;70.70;;;;;;5040427;28;20431;-77
2022/12/28 10:54:46;;;;;;;5.33;1.50;;;10.10;70.40;;;;;;5027284;28;20528;-77
2022/12/28 10:57:20;;;;;;;4.83;1.60;;;10.20;70.40;;;;;;5030057;28;20479;-75
2022/12/28 10:59:45;;;;;;;1.90;1.20;;;10.10;70.40;;;;;;5029110;28;20459;-77
2022/12/28 11:02:31;;;;;;;4.47;1.90;;;10.20;70.20;;;;;;5029806;28;20427;-75
2022/12/28 11:04:59;;;;;;;3.17;1.60;;;10.20;70.40;;;;;;5026935;28;20185;-76
2022/12/28 11:07:37;;;;;;;3.37;1.50;;;10.30;70.20;;;;;;5027200;28;20835;-77
2022/12/28 11:10:32;;;;;;;3.50;1.67;;;10.30;69.90;;;;;;5027245;28;20442;-75
2022/12/28 11:13:00;;;;;;;5.27;1.50;;;10.40;69.80;;;;;;5002499;28;20476;-75
2022/12/28 11:15:30;;;;;;;2.80;1.53;;;10.50;69.50;;;;;;5013277;28;20432;-76
2022/12/28 11:18:11;;;;;;;3.93;1.60;;;10.40;69.40;;;;;;5011675;28;20503;-77
2022/12/28 11:20:40;;;;;;;3.33;1.83;;;10.30;69.70;;;;;;5010257;28;20433;-76
2022/12/28 11:23:07;;;;;;;2.87;1.63;;;10.20;69.90;;;;;;4985232;28;20497;-76
2022/12/28 11:25:35;;;;;;;3.00;1.53;;;10.30;69.90;;;;;;5005946;28;20428;-75
2022/12/28 11:28:10;;;;;;;3.33;1.00;;;10.20;69.80;;;;;;5008142;28;20428;-77
2022/12/28 11:30:35;;;;;;;3.00;1.30;;;10.20;69.90;;;;;;5009668;28;20467;-77
2022/12/28 11:33:03;;;;;;;2.37;1.50;;;10.10;69.90;;;;;;5005573;28;20510;-76
2022/12/28 11:35:32;;;;;;;3.93;1.30;;;10.10;70.20;;;;;;5011353;28;20218;-77
2022/12/28 11:38:00;;;;;;;6.93;1.50;;;10.10;70.10;;;;;;5005488;28;21065;-77
2022/12/28 11:40:43;;;;;;;3.43;1.27;;;10.10;70.10;;;;;;5008161;28;20429;-76
2022/12/28 11:43:27;;;;;;;3.20;1.53;;;10.20;70.20;;;;;;5008763;28;20472;-76
2022/12/28 11:46:01;;;;;;;2.30;1.57;;;10.30;70.20;;;;;;4994728;28;20428;-76
2022/12/28 11:48:57;;;;;;;2.30;1.10;;;10.30;70.10;;;;;;5019958;28;20440;-75
2022/12/28 11:51:35;;;;;;;3.70;1.70;;;10.40;69.80;;;;;;5037319;28;20488;-77
2022/12/28 11:54:23;;;;;;;4.57;1.27;;;10.30;69.70;;;;;;5046459;28;20538;-77
2022/12/28 11:56:51;;;;;;;5.20;1.40;;;10.30;69.80;;;;;;5041735;28;20452;-77
2022/12/28 11:59:23;;;;;;;3.97;1.53;;;10.40;69.90;;;;;;5043925;28;20427;-78
2022/12/28 12:01:51;;;;;;;4.97;1.50;;;10.40;70.20;;;;;;5040688;28;20411;-76
2022/12/28 12:04:46;;;;;;;2.07;0.90;;;10.40;70.10;;;;;;5041861;28;20459;-78
2022/12/28 12:07:19;;;;;;;2.37;1.30;;;10.40;69.90;;;;;;5037735;28;20472;-77
2022/12/28 12:09:47;;;;;;;2.43;1.47;;;10.40;69.90;;;;;;5023611;28;20435;-76
2022/12/28 12:12:13;;;;;;;6.03;1.50;;;10.30;70.10;;;;;;5029044;28;20546;-76
2022/12/28 12:14:43;;;;;;;2.27;1.30;;;10.30;70.10;;;;;;5028900;28;20526;-76
2022/12/28 12:17:26;;;;;;;3.00;1.20;;;10.40;70.20;;;;;;5031751;28;20286;-76
2022/12/28 12:19:59;;;;;;;2.33;1.33;;;10.40;70.10;;;;;;5026820;28;20412;-75
2022/12/28 12:22:30;;;;;;;1.77;1.37;;;10.50;69.70;;;;;;5027804;28;20417;-78
2022/12/28 12:25:00;;;;;;;5.33;1.60;;;10.40;69.90;;;;;;5029272;28;20482;-75
2022/12/28 12:27:32;;;;;;;2.93;1.50;;;10.40;70.10;;;;;;5026927;28;20423;-76
2022/12/28 12:30:20;;;;;;;1.60;1.30;;;10.40;69.90;;;;;;5029608;28;20483;-76
2022/12/28 12:32:54;;;;;;;2.70;1.47;;;10.50;70.10;;;;;;5032696;28;20454;-77
2022/12/28 12:35:28;;;;;;;2.40;1.47;;;10.60;69.90;;;;;;5026834;28;20420;-76
2022/12/28 12:38:01;;;;;;;3.93;1.40;;;10.70;69.70;;;;;;5026297;28;20481;-76
2022/12/28 12:40:55;;;;;;;2.83;1.50;;;10.80;69.80;;;;;;5030878;28;20435;-75
2022/12/28 12:43:40;;;;;;;2.80;1.43;;;10.90;69.40;;;;;;5030620;28;21044;-75
2022/12/28 12:46:24;;;;;;;2.40;1.30;;;10.90;69.70;;;;;;5033345;28;21122;-75
2022/12/28 12:49:34;;;;;;;3.37;1.70;;;10.90;69.40;;;;;;5028637;28;20416;-77
2022/12/28 12:52:14;;;;;;;1.80;1.37;;;10.90;69.40;;;;;;5010931;28;20522;-76
2022/12/28 12:55:10;;;;;;;1.63;1.40;;;10.80;69.40;;;;;;4996070;28;20456;-77
2022/12/28 12:57:44;;;;;;;5.70;1.30;;;10.80;69.70;;;;;;5010536;28;20564;-77
2022/12/28 13:00:19;;;;;;;4.80;1.50;;;10.80;69.40;;;;;;5005936;28;20813;-77
2022/12/28 13:03:12;;;;;;;3.47;1.63;;;10.80;69.50;;;;;;5006224;28;20534;-78
2022/12/28 13:05:41;;;;;;;5.50;1.83;;;10.70;69.50;;;;;;5003151;28;20417;-76
2022/12/28 13:08:19;;;;;;;4.40;1.70;;;10.60;69.80;;;;;;5005140;28;20859;-77
2022/12/28 13:10:44;;;;;;;2.83;1.50;;;10.60;69.80;;;;;;4994272;28;20428;-77
2022/12/28 13:13:25;;;;;;;4.43;1.50;;;10.60;69.90;;;;;;5009294;28;20467;-77
2022/12/28 13:15:53;;;;;;;2.50;1.60;;;10.50;70.10;;;;;;5008175;28;20205;-77
2022/12/28 13:18:20;;;;;;;3.73;1.90;;;10.50;70.20;;;;;;4993895;28;20465;-77
2022/12/28 13:21:00;;;;;;;2.10;1.30;;;10.50;70.20;;;;;;5008014;28;20425;-76
2022/12/28 13:23:29;;;;;;;3.63;1.73;;;10.50;70.20;;;;;;4991696;28;20878;-76
2022/12/28 13:26:00;;;;;;;2.27;1.30;;;10.50;70.50;;;;;;5003388;28;20470;-78
2022/12/28 13:28:31;;;;;;;2.20;1.60;;;10.40;70.70;;;;;;5021639;28;20443;-76
2022/12/28 13:31:16;;;;;;;4.83;1.40;;;10.30;71.00;;;;;;5037018;28;20420;-76
2022/12/28 13:33:51;;;;;;;6.70;1.53;;;10.30;71.10;;;;;;5035001;28;21049;-77
2022/12/28 13:36:18;;;;;;;1.80;1.50;;;10.20;71.30;;;;;;5032430;28;20933;-76
2022/12/28 13:38:44;;;;;;;2.63;2.00;;;10.20;71.30;;;;;;5026259;28;20471;-77